Time;durP1;ratioP1;P1;durP2;ratioP2;P2;SDS_P1;SDS_P2;PMS_P1;PMS_P2;Temp;Humidity;BMP_temperature;BMP_pressure;BME280_temperature;BME280_humidity;BME280_pressure;Samples;Min_cycle;Max_cycle;Signal;HPM_P1;HPM_P2
2021/08/06 00:00:30;;;;;;;2.40;2.20;;;;;;;19.50;64.73;98760.72;4493908;31;32958;-81
2021/08/06 00:02:58;;;;;;;2.70;2.50;;;;;;;19.54;64.56;98761.28;4466991;31;33873;-81
2021/08/06 00:05:26;;;;;;;4.12;3.05;;;;;;;19.64;64.00;98764.75;4465191;31;33017;-81
2021/08/06 00:07:54;;;;;;;3.53;2.90;;;;;;;19.43;64.73;98760.47;4495807;31;33629;-81
2021/08/06 00:10:21;;;;;;;3.35;2.50;;;;;;;19.29;65.15;98768.16;4476019;31;34164;-81
2021/08/06 00:12:49;;;;;;;4.97;2.45;;;;;;;19.47;64.77;98766.37;4476634;31;34857;-81
2021/08/06 00:15:17;;;;;;;2.75;2.45;;;;;;;19.48;64.65;98767.22;4492356;31;34026;-81
2021/08/06 00:17:45;;;;;;;4.18;2.90;;;;;;;19.34;65.03;98777.44;4489980;31;33502;-81
2021/08/06 00:20:13;;;;;;;7.10;2.45;;;;;;;19.07;66.87;98775.56;4474243;31;32461;-81
2021/08/06 00:22:40;;;;;;;3.25;2.65;;;;;;;19.24;65.79;98765.09;4478323;31;33872;-81
2021/08/06 00:25:09;;;;;;;2.83;2.17;;;;;;;19.46;65.03;98762.00;4464507;31;33543;-81
2021/08/06 00:27:37;;;;;;;3.20;2.62;;;;;;;19.42;65.04;98768.66;4476131;31;34381;-81
2021/08/06 00:30:05;;;;;;;3.90;2.87;;;;;;;19.45;65.19;98763.00;4478979;31;33091;-81
2021/08/06 00:32:33;;;;;;;3.70;2.50;;;;;;;19.02;66.49;98769.78;4487055;31;33839;-81
2021/08/06 00:35:02;;;;;;;3.53;3.10;;;;;;;19.43;65.02;98765.00;4479580;31;34297;-81
2021/08/06 00:37:29;;;;;;;3.55;3.03;;;;;;;19.16;65.99;98774.69;4478055;31;33889;-81
2021/08/06 00:39:59;;;;;;;3.85;3.47;;;;;;;19.16;65.86;98781.87;4480494;31;34050;-81
2021/08/06 00:42:28;;;;;;;3.53;2.90;;;;;;;19.19;65.72;98776.22;4477388;31;34574;-81
2021/08/06 00:44:57;;;;;;;3.20;2.72;;;;;;;18.94;67.42;98780.38;4491329;31;34947;-81
2021/08/06 00:47:25;;;;;;;3.37;2.97;;;;;;;18.87;67.00;98764.06;4478568;31;33861;-81
2021/08/06 00:49:53;;;;;;;2.95;2.62;;;;;;;19.36;66.05;98770.06;4473806;31;33873;-81
2021/08/06 00:52:21;;;;;;;5.25;2.90;;;;;;;19.28;65.79;98782.53;4492003;31;33946;-81
2021/08/06 00:54:49;;;;;;;3.70;2.70;;;;;;;19.60;65.01;98774.91;4457643;32;34522;-81
2021/08/06 00:57:17;;;;;;;3.90;3.15;;;;;;;19.55;65.07;98769.16;4491475;31;33393;-81
2021/08/06 00:59:46;;;;;;;3.22;2.80;;;;;;;19.63;64.97;98771.12;4473811;31;34626;-81
2021/08/06 01:02:19;;;;;;;3.05;2.60;;;;;;;19.91;63.70;98772.78;4476356;31;33519;-81
2021/08/06 01:04:56;;;;;;;3.42;2.95;;;;;;;19.34;65.16;98785.47;4473839;31;33719;-81
2021/08/06 01:07:46;;;;;;;5.15;2.90;;;;;;;19.54;64.82;98777.34;4468855;31;32775;-80
2021/08/06 01:10:17;;;;;;;5.07;3.50;;;;;;;19.40;65.01;98784.03;4474922;31;33353;-81
2021/08/06 01:12:59;;;;;;;3.50;2.92;;;;;;;19.33;64.96;98783.78;4462335;31;32880;-81
2021/08/06 01:15:27;;;;;;;;;;;;;;;19.30;65.38;98785.91;4486057;31;34424;-81
2021/08/06 01:17:59;;;;;;;3.97;3.35;;;;;;;18.96;66.11;98780.25;4477423;31;35021;-81
2021/08/06 01:20:49;;;;;;;4.97;4.47;;;;;;;19.31;64.92;98776.88;4486226;31;34446;-81
2021/08/06 01:23:21;;;;;;;7.25;3.30;;;;;;;19.22;65.06;98775.06;4469370;31;33124;-81
2021/08/06 01:25:58;;;;;;;4.18;3.25;;;;;;;18.78;66.91;98772.94;4481171;31;34439;-81
2021/08/06 01:28:30;;;;;;;4.90;3.50;;;;;;;19.05;65.91;98780.22;4478316;31;33645;-81
2021/08/06 01:30:59;;;;;;;3.78;3.08;;;;;;;19.17;65.26;98779.03;4473641;31;32862;-81
2021/08/06 01:33:30;;;;;;;5.60;3.20;;;;;;;19.05;65.59;98782.88;4476718;31;33311;-81
2021/08/06 01:35:57;;;;;;;5.70;3.62;;;;;;;18.98;65.68;98787.13;4473698;31;33483;-80
2021/08/06 01:38:26;;;;;;;6.53;3.45;;;;;;;18.82;66.61;98786.88;4479731;31;34372;-81
2021/08/06 01:41:15;;;;;;;3.28;2.97;;;;;;;18.87;66.12;98780.13;4472226;31;33948;-81
2021/08/06 01:44:22;;;;;;;3.30;3.00;;;;;;;19.11;65.16;98778.78;4495375;31;34349;-81
2021/08/06 01:46:55;;;;;;;3.45;3.10;;;;;;;19.38;64.22;98778.81;4492019;31;33988;-81
2021/08/06 01:49:30;;;;;;;5.72;3.12;;;;;;;19.26;64.55;98780.00;4478759;31;33397;-81
2021/08/06 01:52:02;;;;;;;3.87;2.67;;;;;;;19.20;64.70;98777.91;4483741;31;33433;-81
2021/08/06 01:54:31;;;;;;;3.42;2.65;;;;;;;19.24;64.31;98781.97;4472002;32;33921;-81
2021/08/06 01:57:00;;;;;;;4.45;3.42;;;;;;;19.02;65.41;98769.78;4484334;31;34539;-81
2021/08/06 01:59:28;;;;;;;6.57;3.90;;;;;;;18.85;66.03;98779.44;4474611;32;34291;-81
2021/08/06 02:01:57;;;;;;;7.68;4.18;;;;;;;18.59;66.75;98783.66;4486471;31;34063;-81
2021/08/06 02:04:26;;;;;;;3.95;3.58;;;;;;;18.49;67.19;98781.00;4489304;31;34473;-81
2021/08/06 02:06:56;;;;;;;4.15;3.75;;;;;;;18.59;66.85;98775.63;4468234;31;34000;-80
2021/08/06 02:09:25;;;;;;;3.50;3.20;;;;;;;18.91;65.61;98781.50;4488047;31;34141;-81
2021/08/06 02:11:53;;;;;;;5.03;3.80;;;;;;;18.81;65.91;98779.88;4471476;31;32499;-81
2021/08/06 02:14:22;;;;;;;3.22;2.90;;;;;;;18.80;65.95;98792.41;4466556;31;33164;-81
2021/08/06 02:16:52;;;;;;;3.83;3.42;;;;;;;19.23;64.34;98788.34;4473324;31;34772;-81
2021/08/06 02:19:23;;;;;;;4.70;3.58;;;;;;;18.95;65.52;98783.91;4485123;31;33964;-81
2021/08/06 02:21:55;;;;;;;4.15;3.75;;;;;;;19.08;65.09;98787.09;4459581;31;33920;-81
2021/08/06 02:24:25;;;;;;;3.62;3.33;;;;;;;19.06;64.86;98789.09;4489656;31;33493;-81
2021/08/06 02:26:55;;;;;;;4.10;3.37;;;;;;;18.88;65.84;98795.16;4479188;31;33778;-80
2021/08/06 02:29:26;;;;;;;3.60;3.30;;;;;;;18.65;66.79;98797.28;4466402;31;33292;-81
2021/08/06 02:31:56;;;;;;;4.93;3.62;;;;;;;18.98;65.69;98781.78;4473579;31;33052;-81
2021/08/06 02:34:24;;;;;;;3.05;2.78;;;;;;;19.14;65.02;98787.38;4477592;31;34440;-81
2021/08/06 02:36:52;;;;;;;3.72;3.17;;;;;;;19.42;63.91;98784.72;4479700;31;33673;-81
2021/08/06 02:39:23;;;;;;;3.33;2.85;;;;;;;19.34;64.25;98787.28;4475915;31;32804;-81
2021/08/06 02:41:51;;;;;;;4.07;3.60;;;;;;;19.07;64.94;98785.41;4483651;31;32440;-81
2021/08/06 02:44:19;;;;;;;3.67;3.17;;;;;;;19.04;65.30;98791.91;4475060;31;34266;-81
2021/08/06 02:46:47;;;;;;;4.80;3.50;;;;;;;19.06;65.34;98795.28;4461116;31;32907;-81
2021/08/06 02:49:14;;;;;;;5.43;3.42;;;;;;;19.10;65.04;98807.38;4475066;31;32931;-80
2021/08/06 02:51:42;;;;;;;6.32;2.62;;;;;;;19.19;64.55;98798.47;4478138;31;33047;-81
2021/08/06 02:54:10;;;;;;;4.35;3.17;;;;;;;19.05;65.29;98801.62;4470733;31;34398;-81
2021/08/06 02:56:37;;;;;;;4.47;2.85;;;;;;;19.24;64.66;98805.22;4478020;31;34296;-80
2021/08/06 02:59:05;;;;;;;3.50;3.00;;;;;;;19.10;64.45;98807.38;4487400;31;33716;-81
2021/08/06 03:01:33;;;;;;;3.12;2.83;;;;;;;19.11;64.79;98809.06;4471806;31;33456;-81
2021/08/06 03:04:01;;;;;;;3.72;3.40;;;;;;;19.11;64.39;98805.53;4460600;32;34306;-81
2021/08/06 03:06:30;;;;;;;3.00;2.67;;;;;;;19.25;63.77;98809.59;4476387;31;33644;-81
2021/08/06 03:08:59;;;;;;;3.95;3.28;;;;;;;19.36;63.29;98804.87;4484552;31;34791;-81
2021/08/06 03:11:26;;;;;;;3.78;3.20;;;;;;;19.32;63.08;98811.53;4479249;31;33297;-80
2021/08/06 03:13:54;;;;;;;3.50;2.83;;;;;;;18.86;64.85;98820.37;4468212;31;34515;-81
2021/08/06 03:16:22;;;;;;;4.53;3.20;;;;;;;18.87;64.39;98814.88;4474319;31;33400;-81
2021/08/06 03:18:50;;;;;;;4.65;3.25;;;;;;;18.88;64.53;98813.06;4482928;31;33794;-81
2021/08/06 03:21:19;;;;;;;3.50;3.00;;;;;;;18.92;64.66;98814.47;4450688;31;32365;-80
2021/08/06 03:23:47;;;;;;;4.60;3.55;;;;;;;18.82;65.39;98811.81;4471241;31;34084;-81
2021/08/06 03:26:14;;;;;;;3.55;3.22;;;;;;;18.63;65.87;98815.31;4471668;31;35022;-81
2021/08/06 03:28:42;;;;;;;3.53;2.90;;;;;;;18.88;64.72;98808.53;4469997;31;33886;-81
2021/08/06 03:31:10;;;;;;;4.45;3.05;;;;;;;18.84;65.00;98822.34;4472682;31;33056;-81
2021/08/06 03:33:39;;;;;;;3.92;3.33;;;;;;;18.83;64.99;98829.53;4482369;31;34471;-81
2021/08/06 03:36:07;;;;;;;3.47;3.15;;;;;;;18.92;64.65;98826.00;4475054;31;33930;-82
2021/08/06 03:38:36;;;;;;;5.75;3.47;;;;;;;18.92;64.59;98825.16;4491557;31;32694;-81
2021/08/06 03:41:03;;;;;;;4.20;3.33;;;;;;;18.90;64.19;98832.50;4478573;31;33560;-81
2021/08/06 03:43:31;;;;;;;5.00;4.25;;;;;;;18.67;65.08;98827.41;4487632;31;34580;-81
2021/08/06 03:45:59;;;;;;;4.97;3.22;;;;;;;18.42;65.88;98831.50;4472945;31;34865;-81
2021/08/06 03:48:26;;;;;;;5.97;3.08;;;;;;;18.65;65.11;98828.53;4480525;31;33931;-81
2021/08/06 03:50:55;;;;;;;3.50;3.20;;;;;;;18.81;64.80;98841.38;4486074;31;33325;-81
2021/08/06 03:53:22;;;;;;;3.90;3.55;;;;;;;18.80;64.72;98843.22;4474532;31;34582;-81
2021/08/06 03:55:50;;;;;;;3.87;2.97;;;;;;;18.81;64.78;98834.19;4468445;31;33124;-81
2021/08/06 03:58:19;;;;;;;5.00;2.95;;;;;;;18.73;65.10;98842.06;4487119;31;33856;-81
2021/08/06 04:00:46;;;;;;;4.18;3.00;;;;;;;18.73;65.24;98842.06;4471815;31;34129;-81
2021/08/06 04:03:16;;;;;;;4.18;3.35;;;;;;;18.61;65.27;98849.38;4480128;31;32891;-80
2021/08/06 04:05:43;;;;;;;3.25;2.62;;;;;;;18.99;64.04;98847.69;4495284;31;34012;-81
2021/08/06 04:08:11;;;;;;;2.90;2.60;;;;;;;19.19;63.12;98845.81;4467042;31;34196;-81
2021/08/06 04:10:40;;;;;;;3.40;3.08;;;;;;;19.07;63.45;98841.59;4489208;31;34090;-81
2021/08/06 04:13:08;;;;;;;5.32;3.12;;;;;;;18.92;63.92;98838.53;4489754;31;34927;-81
2021/08/06 04:15:36;;;;;;;4.18;3.08;;;;;;;18.84;64.05;98839.22;4484266;31;33993;-80
2021/08/06 04:18:04;;;;;;;7.32;3.47;;;;;;;18.62;64.64;98845.72;4480493;31;34493;-80
2021/08/06 04:20:31;;;;;;;4.05;2.83;;;;;;;19.11;63.48;98843.84;4473032;31;33376;-81
2021/08/06 04:22:59;;;;;;;2.87;2.65;;;;;;;19.36;62.66;98842.34;4487475;31;34780;-81
2021/08/06 04:25:29;;;;;;;3.37;2.72;;;;;;;19.27;63.31;98845.91;4480042;31;33869;-80
2021/08/06 04:27:56;;;;;;;3.05;2.75;;;;;;;19.24;62.99;98846.22;4481657;31;33911;-80
2021/08/06 04:30:24;;;;;;;4.37;3.08;;;;;;;19.18;63.39;98850.31;4482775;31;32749;-81
2021/08/06 04:32:52;;;;;;;3.42;2.80;;;;;;;19.05;64.07;98855.13;4478805;31;33618;-81
2021/08/06 04:35:20;;;;;;;3.03;2.60;;;;;;;19.26;63.60;98854.09;4452179;31;33415;-81
2021/08/06 04:37:51;;;;;;;7.57;2.60;;;;;;;19.38;63.43;98847.59;4487621;31;34010;-80
2021/08/06 04:40:20;;;;;;;3.10;2.80;;;;;;;19.44;63.33;98849.66;4489587;31;33319;-81
2021/08/06 04:42:48;;;;;;;3.15;2.85;;;;;;;19.49;61.97;98855.41;4468302;31;33182;-81
2021/08/06 04:45:15;;;;;;;3.95;3.55;;;;;;;19.32;63.12;98861.53;4472995;31;33489;-81
2021/08/06 04:47:49;;;;;;;6.28;3.00;;;;;;;18.99;63.92;98870.88;4469491;32;33006;-81
2021/08/06 04:50:19;;;;;;;3.83;2.92;;;;;;;18.33;66.32;98868.91;4475908;31;34955;-81
2021/08/06 04:52:53;;;;;;;4.57;3.53;;;;;;;18.95;64.34;98875.72;4474565;31;34558;-80
2021/08/06 04:55:21;;;;;;;3.17;2.60;;;;;;;18.47;65.31;98876.53;4485952;31;32357;-81
2021/08/06 04:57:51;;;;;;;5.07;3.70;;;;;;;18.85;64.69;98883.75;4493884;31;33867;-81
2021/08/06 05:00:20;;;;;;;3.03;2.72;;;;;;;18.66;65.68;98879.22;4484641;31;33158;-81
2021/08/06 05:02:48;;;;;;;2.80;2.50;;;;;;;18.97;64.90;98876.41;4472214;32;33578;-81
2021/08/06 05:05:16;;;;;;;3.08;2.78;;;;;;;19.09;64.61;98875.25;4488915;31;33774;-81
2021/08/06 05:07:49;;;;;;;3.92;2.72;;;;;;;19.23;64.23;98881.13;4490163;31;33959;-81
2021/08/06 05:10:20;;;;;;;4.20;2.80;;;;;;;18.57;65.29;98881.88;4474520;31;34261;-81
2021/08/06 05:12:49;;;;;;;3.65;3.28;;;;;;;19.13;64.74;98886.50;4472270;31;33863;-80
2021/08/06 05:15:17;;;;;;;3.12;2.70;;;;;;;19.23;63.67;98883.81;4487394;31;34542;-81
2021/08/06 05:17:45;;;;;;;3.25;2.92;;;;;;;19.48;62.89;98891.22;4474296;31;33171;-80
2021/08/06 05:20:14;;;;;;;4.37;2.90;;;;;;;19.44;63.41;98892.50;4473914;31;33440;-81
2021/08/06 05:22:41;;;;;;;4.12;2.85;;;;;;;19.10;64.83;98892.16;4472282;31;33526;-81
2021/08/06 05:25:10;;;;;;;2.87;2.60;;;;;;;19.44;63.68;98901.38;4486278;31;33662;-80
2021/08/06 05:27:38;;;;;;;3.12;2.80;;;;;;;19.38;64.33;98901.13;4491799;31;34850;-81
2021/08/06 05:30:07;;;;;;;2.87;2.58;;;;;;;19.35;63.85;98896.87;4479437;31;34572;-80
2021/08/06 05:32:35;;;;;;;3.15;2.65;;;;;;;19.12;64.13;98890.16;4471089;31;32801;-81
2021/08/06 05:35:03;;;;;;;6.55;2.53;;;;;;;19.31;63.65;98890.13;4476565;32;33560;-80
2021/08/06 05:37:30;;;;;;;2.72;2.53;;;;;;;19.26;63.66;98892.41;4490187;31;33818;-80
2021/08/06 05:39:59;;;;;;;3.30;2.90;;;;;;;19.73;63.28;98888.91;4484529;31;33816;-80
2021/08/06 05:42:26;;;;;;;3.33;2.78;;;;;;;19.58;63.15;98881.31;4477898;31;34506;-81
2021/08/06 05:44:54;;;;;;;3.42;3.12;;;;;;;19.78;62.77;98894.66;4469278;31;34830;-80
2021/08/06 05:47:24;;;;;;;4.87;4.28;;;;;;;19.82;62.79;98893.38;4489775;31;34326;-81
2021/08/06 05:49:52;;;;;;;3.03;2.65;;;;;;;20.10;61.03;98897.75;4485032;31;33394;-80
2021/08/06 05:52:21;;;;;;;3.55;2.20;;;;;;;19.89;61.52;98910.53;4458826;31;33793;-80
2021/08/06 05:54:49;;;;;;;2.37;2.15;;;;;;;20.10;61.28;98908.47;4472944;31;33202;-80
2021/08/06 05:57:18;;;;;;;2.28;2.05;;;;;;;20.01;60.29;98909.38;4488409;31;33973;-80
2021/08/06 05:59:47;;;;;;;2.85;2.65;;;;;;;20.45;60.43;98915.72;4479433;31;32873;-81
2021/08/06 06:02:15;;;;;;;2.53;2.33;;;;;;;20.31;60.06;98904.69;4480913;31;34552;-81
2021/08/06 06:04:43;;;;;;;2.65;2.33;;;;;;;20.45;58.97;98923.78;4476294;31;34966;-80
2021/08/06 06:07:11;;;;;;;2.67;2.10;;;;;;;20.51;60.63;98918.81;4477586;31;33068;-80
2021/08/06 06:09:38;;;;;;;2.33;2.08;;;;;;;19.97;60.76;98928.56;4493834;31;33384;-80
2021/08/06 06:12:07;;;;;;;4.18;2.08;;;;;;;20.53;59.95;98922.22;4482757;31;32757;-80
2021/08/06 06:14:34;;;;;;;4.40;2.35;;;;;;;20.33;59.83;98933.03;4466756;31;33112;-80
2021/08/06 06:17:03;;;;;;;2.30;2.10;;;;;;;20.40;60.06;98919.84;4485680;31;34603;-80
2021/08/06 06:19:32;;;;;;;2.50;2.30;;;;;;;20.46;59.95;98932.66;4470642;31;33426;-80
2021/08/06 06:22:00;;;;;;;2.78;2.47;;;;;;;20.28;59.68;98926.44;4477083;31;34107;-81
2021/08/06 06:24:27;;;;;;;4.47;2.20;;;;;;;20.43;59.38;98932.97;4458201;32;33067;-80
2021/08/06 06:26:55;;;;;;;4.32;2.85;;;;;;;19.98;60.89;98931.09;4485272;31;33560;-80
2021/08/06 06:29:23;;;;;;;1.85;1.75;;;;;;;20.13;59.50;98926.94;4478284;31;34308;-80
2021/08/06 06:31:51;;;;;;;3.37;2.15;;;;;;;20.42;59.63;98917.88;4489649;31;33857;-81
2021/08/06 06:34:19;;;;;;;2.72;1.90;;;;;;;20.53;57.87;98924.91;4486234;31;34078;-80
2021/08/06 06:36:47;;;;;;;2.20;1.83;;;;;;;20.64;58.75;98922.81;4471678;31;32695;-81
2021/08/06 06:39:15;;;;;;;3.47;2.10;;;;;;;20.52;58.68;98921.38;4484930;31;32705;-80
2021/08/06 06:41:43;;;;;;;4.10;1.77;;;;;;;21.00;57.18;98930.88;4491427;31;33477;-81
2021/08/06 06:44:17;;;;;;;1.83;1.60;;;;;;;20.49;58.56;98927.03;4455277;31;34546;-80
2021/08/06 06:46:45;;;;;;;2.15;1.80;;;;;;;20.73;57.61;98922.91;4478892;31;34116;-80
2021/08/06 06:49:12;;;;;;;3.12;1.77;;;;;;;21.36;56.46;98922.81;4479156;31;34112;-80
2021/08/06 06:51:40;;;;;;;1.85;1.70;;;;;;;21.86;54.87;98932.84;4483345;31;34745;-80
2021/08/06 06:54:08;;;;;;;2.95;1.67;;;;;;;21.75;56.48;98931.28;4469913;31;34839;-81
2021/08/06 06:56:35;;;;;;;1.87;1.60;;;;;;;21.46;55.13;98927.09;4469142;31;34383;-80
2021/08/06 06:59:03;;;;;;;1.85;1.75;;;;;;;21.44;55.85;98930.91;4481468;31;33194;-81
2021/08/06 07:01:31;;;;;;;2.42;2.20;;;;;;;21.10;56.05;98939.69;4479065;31;34329;-81
2021/08/06 07:03:59;;;;;;;4.32;1.87;;;;;;;21.54;55.12;98945.09;4487284;31;35118;-81
2021/08/06 07:06:27;;;;;;;2.15;1.95;;;;;;;21.38;56.17;98942.31;4476862;31;34279;-80
2021/08/06 07:08:55;;;;;;;2.12;1.92;;;;;;;21.04;58.50;98945.69;4482644;31;33671;-80
2021/08/06 07:11:23;;;;;;;1.67;1.58;;;;;;;21.68;55.61;98943.66;4465362;31;33199;-80
2021/08/06 07:13:50;;;;;;;1.45;1.12;;;;;;;21.92;54.33;98940.28;4478992;31;34347;-80
2021/08/06 07:16:19;;;;;;;1.60;1.50;;;;;;;21.63;55.09;98949.50;4468056;31;33841;-80
2021/08/06 07:18:47;;;;;;;1.50;1.40;;;;;;;21.94;55.24;98938.28;4487198;31;33378;-80
2021/08/06 07:21:14;;;;;;;1.67;1.20;;;;;;;22.31;54.02;98945.19;4494557;31;33888;-81
2021/08/06 07:23:42;;;;;;;2.08;1.25;;;;;;;22.06;54.73;98952.28;4483401;31;34048;-80
2021/08/06 07:26:10;;;;;;;1.25;1.15;;;;;;;21.72;53.44;98956.63;4473338;31;33993;-81
2021/08/06 07:28:40;;;;;;;1.50;1.23;;;;;;;22.00;52.92;98948.38;4463881;31;33151;-80
2021/08/06 07:31:08;;;;;;;1.77;1.30;;;;;;;22.02;52.36;98946.38;4462617;31;32914;-80
2021/08/06 07:33:36;;;;;;;1.35;1.25;;;;;;;22.38;53.11;98941.69;4470147;31;34097;-81
2021/08/06 07:36:04;;;;;;;2.12;1.25;;;;;;;22.54;51.40;98940.87;4491715;31;33858;-80
2021/08/06 07:38:32;;;;;;;1.08;1.08;;;;;;;22.61;52.27;98947.31;4461368;31;32849;-81
2021/08/06 07:41:00;;;;;;;1.27;1.17;;;;;;;22.81;51.07;98947.00;4485497;31;33567;-80
2021/08/06 07:43:28;;;;;;;2.25;1.52;;;;;;;22.69;51.93;98941.94;4475401;31;34052;-81
2021/08/06 07:45:56;;;;;;;1.30;1.20;;;;;;;22.90;50.96;98940.66;4489671;31;33993;-81
2021/08/06 07:48:24;;;;;;;2.67;1.15;;;;;;;23.27;50.53;98947.41;4496054;31;34388;-81
2021/08/06 07:50:51;;;;;;;1.33;1.23;;;;;;;23.45;49.17;98940.84;4477252;31;33809;-81
2021/08/06 07:53:20;;;;;;;4.93;0.90;;;;;;;23.34;50.25;98943.84;4472013;31;33875;-81
2021/08/06 07:55:47;;;;;;;1.00;0.90;;;;;;;23.59;48.28;98938.44;4494415;31;33767;-80
2021/08/06 07:58:15;;;;;;;1.15;1.05;;;;;;;23.63;48.45;98948.69;4458292;31;33062;-81
2021/08/06 08:00:43;;;;;;;1.02;1.00;;;;;;;23.19;48.29;98957.16;4479366;31;33338;-80
2021/08/06 08:03:11;;;;;;;1.25;1.05;;;;;;;23.38;47.90;98949.75;4472082;31;33252;-81
2021/08/06 08:05:40;;;;;;;1.15;0.80;;;;;;;23.71;48.40;98950.59;4487288;31;34113;-80
2021/08/06 08:08:07;;;;;;;1.10;0.85;;;;;;;23.79;46.95;98953.25;4483830;31;32210;-81
2021/08/06 08:10:36;;;;;;;0.93;0.70;;;;;;;23.68;47.65;98954.44;4471609;31;34212;-81
2021/08/06 08:13:11;;;;;;;2.08;1.15;;;;;;;23.87;46.68;98949.69;4473693;31;33946;-81
2021/08/06 08:15:40;;;;;;;1.10;1.00;;;;;;;23.68;47.06;98957.13;4484991;31;34174;-81
2021/08/06 08:18:08;;;;;;;0.80;0.70;;;;;;;23.89;47.11;98959.31;4463424;31;33700;-81
2021/08/06 08:20:36;;;;;;;1.33;1.17;;;;;;;23.98;46.54;98949.34;4483007;31;34964;-81
2021/08/06 08:23:04;;;;;;;1.58;0.80;;;;;;;24.26;48.67;98950.59;4480638;31;34024;-81
2021/08/06 08:25:33;;;;;;;1.15;1.05;;;;;;;24.50;46.40;98943.41;4495917;31;33506;-81
2021/08/06 08:28:00;;;;;;;3.40;0.95;;;;;;;24.40;47.17;98950.88;4496655;31;33033;-80
2021/08/06 08:30:28;;;;;;;1.15;0.70;;;;;;;24.64;45.25;98948.06;4475161;32;33928;-81
2021/08/06 08:33:02;;;;;;;0.95;0.85;;;;;;;24.28;47.45;98953.94;4495924;31;35107;-81
2021/08/06 08:35:30;;;;;;;2.58;0.90;;;;;;;24.69;44.33;98953.75;4466606;32;33523;-81
2021/08/06 08:41:24;;;;;;;1.08;0.98;;;;;;;24.61;45.58;98966.47;4488291;31;33956;-81
2021/08/06 08:43:55;;;;;;;0.88;0.82;;;;;;;24.65;45.43;98965.94;4473412;31;34492;-81
2021/08/06 08:46:26;;;;;;;1.87;1.10;;;;;;;24.69;46.37;98966.44;4490953;31;33750;-81
2021/08/06 08:48:57;;;;;;;0.93;0.90;;;;;;;24.83;44.65;98967.50;4480845;31;33414;-81
2021/08/06 08:51:27;;;;;;;2.15;0.60;;;;;;;24.71;44.61;98965.22;4487200;31;33613;-81
2021/08/06 08:53:56;;;;;;;1.58;0.60;;;;;;;24.87;42.25;98963.44;4477458;31;33601;-81
2021/08/06 08:56:28;;;;;;;0.95;0.68;;;;;;;25.11;43.30;98965.16;4482309;31;34212;-81
2021/08/06 08:58:57;;;;;;;1.42;0.93;;;;;;;25.15;41.90;98971.87;4466920;31;33528;-81
2021/08/06 09:01:25;;;;;;;1.27;1.00;;;;;;;25.34;42.91;98967.84;4475623;31;33727;-81
2021/08/06 09:03:54;;;;;;;3.47;0.80;;;;;;;25.25;43.86;98976.00;4478100;31;34418;-81
2021/08/06 09:06:39;;;;;;;0.50;0.50;;;;;;;25.23;42.83;98971.81;4490000;31;33511;-81
2021/08/06 09:09:20;;;;;;;0.50;0.50;;;;;;;24.94;43.37;98972.50;4477507;31;32707;-81
2021/08/06 09:12:03;;;;;;;1.20;0.80;;;;;;;25.30;42.05;98967.34;4472522;31;34045;-82
2021/08/06 09:14:32;;;;;;;1.20;0.80;;;;;;;25.79;40.62;98969.66;4479762;31;34097;-81
2021/08/06 09:17:10;;;;;;;0.62;0.60;;;;;;;25.98;42.93;98974.50;4484909;31;35340;-82
2021/08/06 09:19:40;;;;;;;0.80;0.60;;;;;;;25.65;40.56;98981.25;4473647;31;32375;-81
2021/08/06 09:22:21;;;;;;;0.60;0.50;;;;;;;25.57;39.93;98978.63;4485839;31;33851;-81
2021/08/06 09:25:00;;;;;;;0.85;0.60;;;;;;;25.69;40.43;98983.41;4487057;31;34000;-81
2021/08/06 09:27:29;;;;;;;0.82;0.60;;;;;;;26.05;42.05;98990.84;4461034;31;33026;-81
2021/08/06 09:29:58;;;;;;;1.58;0.70;;;;;;;26.01;40.70;98986.81;4472613;32;33507;-81
2021/08/06 09:32:27;;;;;;;1.15;0.70;;;;;;;25.97;41.58;98985.50;4494098;31;33766;-81
2021/08/06 09:34:55;;;;;;;0.93;0.70;;;;;;;25.83;41.80;98986.31;4487194;31;34048;-81
2021/08/06 09:37:23;;;;;;;1.77;1.10;;;;;;;25.71;41.08;98986.75;4477951;31;33288;-81
2021/08/06 09:39:53;;;;;;;1.40;0.90;;;;;;;25.77;41.21;98998.72;4473806;32;34055;-81
2021/08/06 09:42:24;;;;;;;0.80;0.70;;;;;;;25.70;40.77;98998.59;4484641;31;34491;-81
2021/08/06 09:44:56;;;;;;;1.25;0.82;;;;;;;26.11;40.16;99003.63;4477848;32;33491;-81
2021/08/06 09:47:25;;;;;;;1.00;0.90;;;;;;;26.05;39.01;98996.25;4486026;31;33845;-81
2021/08/06 09:49:55;;;;;;;1.00;0.90;;;;;;;26.17;39.78;99002.03;4475156;31;33017;-81
2021/08/06 09:52:43;;;;;;;1.35;0.73;;;;;;;26.18;39.86;99001.84;4472205;31;33979;-81
2021/08/06 09:55:22;;;;;;;0.65;0.62;;;;;;;26.10;39.81;98999.22;4473167;31;34913;-81
2021/08/06 09:57:52;;;;;;;2.97;0.88;;;;;;;26.14;40.07;98991.59;4485926;31;33660;-81
2021/08/06 10:00:23;;;;;;;4.18;0.93;;;;;;;26.30;40.33;98999.50;4500057;31;34102;-81
2021/08/06 10:02:53;;;;;;;1.33;0.95;;;;;;;26.39;39.89;98992.12;4495392;31;33555;-81
2021/08/06 10:05:27;;;;;;;1.48;1.10;;;;;;;26.36;39.84;99004.19;4488847;31;33804;-81
2021/08/06 10:07:57;;;;;;;1.02;0.85;;;;;;;26.34;39.46;99002.69;4484984;31;32937;-81
2021/08/06 10:10:29;;;;;;;2.87;1.23;;;;;;;26.32;40.04;99004.75;4483853;31;33489;-81
2021/08/06 10:12:58;;;;;;;0.60;0.60;;;;;;;26.37;40.35;98995.03;4469937;31;33450;-81
2021/08/06 10:15:26;;;;;;;3.33;1.25;;;;;;;26.01;40.60;99000.34;4476593;31;33468;-81
2021/08/06 10:17:55;;;;;;;1.02;0.80;;;;;;;26.14;40.52;99005.13;4484155;31;33876;-81
2021/08/06 10:20:25;;;;;;;1.40;0.77;;;;;;;26.22;39.93;99003.16;4469045;31;33688;-81
2021/08/06 10:22:53;;;;;;;1.08;0.98;;;;;;;26.68;38.98;98992.12;4492951;31;34622;-81
2021/08/06 10:25:22;;;;;;;1.10;1.02;;;;;;;26.60;38.96;98996.81;4481077;31;34076;-81
2021/08/06 10:27:51;;;;;;;2.20;1.15;;;;;;;26.55;38.80;98998.22;4457427;31;33462;-81
2021/08/06 10:30:26;;;;;;;1.55;1.10;;;;;;;26.38;38.95;98996.69;4463217;32;33715;-81
2021/08/06 10:33:20;;;;;;;1.27;1.00;;;;;;;26.74;38.64;98994.06;4473082;31;33084;-81
2021/08/06 10:35:50;;;;;;;0.93;0.80;;;;;;;26.79;39.48;98994.34;4487880;31;33534;-81
2021/08/06 10:38:36;;;;;;;1.35;1.08;;;;;;;26.96;39.78;98994.09;4495352;31;33661;-81
2021/08/06 10:41:13;;;;;;;1.90;1.48;;;;;;;27.09;40.17;98991.56;4486776;31;33227;-81
2021/08/06 10:43:48;;;;;;;2.35;1.02;;;;;;;27.30;39.84;98994.28;4477355;31;34117;-81
2021/08/06 10:46:17;;;;;;;4.47;0.90;;;;;;;27.45;37.75;98986.06;4484193;31;33934;-81
2021/08/06 10:48:51;;;;;;;1.10;1.00;;;;;;;27.47;36.59;98997.56;4483788;31;32891;-81
2021/08/06 10:51:26;;;;;;;1.40;1.20;;;;;;;27.41;36.31;98986.66;4474923;31;32823;-81
2021/08/06 10:53:54;;;;;;;1.77;1.50;;;;;;;27.56;35.42;98990.13;4474327;31;33784;-81
2021/08/06 10:56:24;;;;;;;1.15;0.90;;;;;;;27.74;37.04;98985.09;4493343;31;35107;-81
2021/08/06 10:58:54;;;;;;;1.33;0.88;;;;;;;27.79;36.44;98996.19;4500207;31;33913;-82
2021/08/06 11:04:07;;;;;;;0.80;0.70;;;;;;;27.90;35.57;98999.38;4478517;31;32773;-82
2021/08/06 11:06:53;;;;;;;2.33;0.95;;;;;;;27.56;37.50;98990.13;4472249;31;34102;-81
2021/08/06 11:09:28;;;;;;;1.00;0.90;;;;;;;27.63;35.59;98985.63;4478369;31;32891;-81
2021/08/06 11:12:00;;;;;;;1.10;1.00;;;;;;;27.57;36.53;98986.38;4495374;31;34441;-82
2021/08/06 11:14:27;;;;;;;3.05;1.02;;;;;;;27.72;37.16;98989.03;4488983;31;34594;-81
2021/08/06 11:17:06;;;;;;;1.33;0.93;;;;;;;28.26;35.21;98982.91;4494086;31;34866;-81
2021/08/06 11:19:38;;;;;;;0.60;0.60;;;;;;;27.81;34.81;98990.56;4495202;31;33754;-81
2021/08/06 11:22:20;;;;;;;1.10;1.00;;;;;;;27.57;35.42;98987.22;4489672;31;33691;-81
2021/08/06 11:24:56;;;;;;;0.82;0.82;;;;;;;27.74;35.44;98998.66;4482154;31;34035;-81
2021/08/06 11:27:42;;;;;;;2.30;1.42;;;;;;;27.85;34.92;98999.97;4488378;31;33972;-81
2021/08/06 11:30:12;;;;;;;2.60;1.50;;;;;;;27.80;35.17;99002.44;4481491;31;33286;-81
2021/08/06 11:32:59;;;;;;;1.73;1.55;;;;;;;27.75;35.50;99008.47;4492985;31;33839;-81
2021/08/06 11:35:31;;;;;;;1.10;1.00;;;;;;;28.04;36.27;99001.16;4493754;31;34935;-81
2021/08/06 11:38:03;;;;;;;1.27;1.17;;;;;;;28.31;34.56;98989.41;4474719;31;33378;-81
2021/08/06 11:40:34;;;;;;;1.08;0.75;;;;;;;28.63;35.05;98986.22;4469487;31;33450;-81
2021/08/06 11:43:10;;;;;;;5.45;1.83;;;;;;;28.17;34.35;98990.38;4474531;31;32469;-81
2021/08/06 11:45:39;;;;;;;2.70;1.10;;;;;;;27.37;36.00;98996.22;4476295;31;32779;-81
2021/08/06 11:48:07;;;;;;;1.98;1.27;;;;;;;27.62;35.83;98994.75;4464459;32;33943;-81
2021/08/06 11:50:48;;;;;;;5.28;1.67;;;;;;;27.75;35.49;98996.78;4490510;31;33851;-81
2021/08/06 11:53:18;;;;;;;0.98;0.85;;;;;;;28.07;36.78;98990.75;4482189;31;34202;-82